Time;durP1;ratioP1;P1;durP2;ratioP2;P2;SDS_P1;SDS_P2;PMS_P1;PMS_P2;Temp;Humidity;BMP_temperature;BMP_pressure;BME280_temperature;BME280_humidity;BME280_pressure;Samples;Min_cycle;Max_cycle;Signal;HPM_P1;HPM_P2
2023/03/18 00:00:43;;;;;;;5.50;3.70;;;8.70;1.00;;;;;;6151688;23;20159;-81
2023/03/18 00:03:09;;;;;;;3.43;2.60;;;8.60;1.00;;;;;;6151730;23;20183;-81
2023/03/18 00:05:35;;;;;;;4.57;2.60;;;8.60;1.00;;;;;;6151360;23;20160;-79
2023/03/18 00:08:03;;;;;;;7.50;6.80;;;8.60;1.00;;;;;;6125582;23;20604;-79
2023/03/18 00:10:30;;;;;;;6.00;3.87;;;8.60;1.00;;;;;;6151934;23;20357;-81
2023/03/18 00:12:56;;;;;;;3.53;3.17;;;8.60;1.00;;;;;;6151945;23;20159;-80
2023/03/18 00:15:21;;;;;;;4.17;3.80;;;8.50;1.00;;;;;;6151787;23;20182;-79
2023/03/18 00:17:50;;;;;;;3.00;2.40;;;8.50;1.00;;;;;;6125155;23;20684;-82
2023/03/18 00:20:17;;;;;;;3.53;2.50;;;8.50;1.00;;;;;;6151932;23;20198;-79
2023/03/18 00:22:44;;;;;;;3.63;2.43;;;8.40;1.00;;;;;;6151730;23;20158;-79
2023/03/18 00:25:12;;;;;;;2.60;2.30;;;8.50;1.00;;;;;;6150624;23;20160;-79
2023/03/18 00:27:38;;;;;;;4.23;2.90;;;8.40;1.00;;;;;;6125361;23;20264;-81
2023/03/18 00:30:05;;;;;;;3.63;2.67;;;8.40;1.00;;;;;;6126407;23;20491;-81
2023/03/18 00:32:31;;;;;;;4.30;3.40;;;8.30;1.00;;;;;;6125322;23;20156;-80
2023/03/18 00:34:57;;;;;;;3.20;2.90;;;8.20;1.00;;;;;;6125046;23;20180;-81
2023/03/18 00:37:33;;;;;;;3.87;2.70;;;8.20;1.00;;;;;;6125091;23;20242;-80
2023/03/18 00:40:06;;;;;;;4.17;2.60;;;8.20;1.00;;;;;;6151603;23;20175;-80
2023/03/18 00:42:46;;;;;;;4.20;2.77;;;8.20;1.00;;;;;;6125017;23;20163;-80
2023/03/18 00:45:13;;;;;;;3.97;2.73;;;8.10;1.00;;;;;;6124450;23;20162;-80
2023/03/18 00:47:38;;;;;;;3.90;2.80;;;8.20;1.00;;;;;;6150191;23;20178;-80
2023/03/18 00:50:07;;;;;;;4.00;2.70;;;8.10;1.00;;;;;;6151228;23;20151;-80
2023/03/18 00:52:33;;;;;;;3.73;2.80;;;8.20;1.00;;;;;;6150299;23;20155;-81
2023/03/18 00:54:59;;;;;;;4.40;3.30;;;8.20;1.00;;;;;;6123243;23;20183;-82
2023/03/18 00:57:25;;;;;;;6.53;3.57;;;8.30;1.00;;;;;;6149421;23;20163;-81
2023/03/18 00:59:51;;;;;;;4.03;3.23;;;8.40;1.00;;;;;;6122467;23;20591;-82
2023/03/18 01:02:16;;;;;;;3.40;2.70;;;8.40;1.00;;;;;;6148174;23;20164;-83
2023/03/18 01:04:43;;;;;;;5.10;3.40;;;8.50;1.00;;;;;;6148564;23;20301;-79
2023/03/18 01:07:10;;;;;;;4.00;2.90;;;8.50;1.00;;;;;;6151727;23;20203;-80
2023/03/18 01:09:36;;;;;;;4.57;2.80;;;8.50;1.00;;;;;;6151652;23;20158;-81
2023/03/18 01:12:01;;;;;;;3.77;2.50;;;8.60;1.00;;;;;;6124583;23;20155;-79
2023/03/18 01:14:29;;;;;;;4.97;2.97;;;8.60;1.00;;;;;;6125220;23;20179;-82
2023/03/18 01:16:54;;;;;;;2.67;2.40;;;8.60;1.00;;;;;;6124763;23;20186;-80
2023/03/18 01:19:20;;;;;;;3.83;1.97;;;8.60;1.00;;;;;;6125251;23;20159;-81
2023/03/18 01:21:46;;;;;;;4.20;1.90;;;8.80;1.00;;;;;;6125483;23;20179;-79
2023/03/18 01:24:12;;;;;;;3.40;2.27;;;8.80;1.00;;;;;;6124071;23;20575;-81
2023/03/18 01:26:38;;;;;;;3.73;1.90;;;8.80;1.00;;;;;;6151462;23;20171;-82
2023/03/18 01:29:04;;;;;;;3.43;1.83;;;8.90;1.00;;;;;;6153021;23;20203;-79
2023/03/18 01:31:30;;;;;;;2.90;1.67;;;9.00;1.00;;;;;;6127970;23;20163;-80
2023/03/18 01:33:55;;;;;;;2.43;1.70;;;9.10;1.00;;;;;;6128660;23;20179;-81
2023/03/18 01:36:21;;;;;;;3.00;1.97;;;9.20;1.00;;;;;;6128207;23;20163;-80
2023/03/18 01:38:47;;;;;;;4.57;1.93;;;9.20;1.00;;;;;;6153130;23;20503;-81
2023/03/18 01:41:16;;;;;;;4.10;1.97;;;9.20;1.00;;;;;;6127500;23;20164;-81
2023/03/18 01:43:42;;;;;;;2.43;1.90;;;9.20;1.00;;;;;;6153635;23;20242;-80
2023/03/18 01:46:36;;;;;;;1.97;1.73;;;9.20;1.00;;;;;;6126359;23;20202;-80
2023/03/18 01:49:13;;;;;;;2.63;1.70;;;9.20;1.00;;;;;;6125940;23;20679;-81
2023/03/18 01:51:55;;;;;;;4.30;2.27;;;9.10;1.00;;;;;;6151602;23;20521;-80
2023/03/18 01:54:23;;;;;;;3.30;1.83;;;9.10;1.00;;;;;;6125822;23;20418;-80
2023/03/18 01:56:51;;;;;;;1.73;1.47;;;9.10;1.00;;;;;;6127231;23;20643;-79
2023/03/18 01:59:18;;;;;;;2.20;1.70;;;9.10;1.00;;;;;;6152796;23;20160;-79
2023/03/18 02:02:00;;;;;;;3.40;1.90;;;9.10;1.00;;;;;;6152175;23;20181;-79
2023/03/18 02:04:31;;;;;;;2.37;1.80;;;9.20;1.00;;;;;;6125653;23;20194;-81
2023/03/18 02:06:58;;;;;;;3.73;1.63;;;9.20;1.00;;;;;;6152136;23;20630;-79
2023/03/18 02:09:24;;;;;;;4.50;1.60;;;9.20;1.00;;;;;;6125465;23;20162;-80
2023/03/18 02:11:50;;;;;;;3.07;1.80;;;9.20;1.00;;;;;;6151837;23;20160;-82
2023/03/18 02:14:19;;;;;;;5.00;1.87;;;9.20;1.00;;;;;;6152266;23;20251;-80
2023/03/18 02:17:15;;;;;;;2.47;1.67;;;9.10;1.00;;;;;;6125523;23;20682;-79
2023/03/18 02:19:57;;;;;;;3.87;1.70;;;9.10;1.00;;;;;;6150956;23;20156;-79
2023/03/18 02:22:34;;;;;;;2.97;1.70;;;9.00;1.00;;;;;;6151449;23;20532;-79
2023/03/18 02:25:10;;;;;;;1.67;1.53;;;9.00;1.00;;;;;;6150611;23;20679;-81
2023/03/18 02:27:43;;;;;;;3.00;1.60;;;8.90;1.00;;;;;;6150866;23;20167;-81
2023/03/18 02:30:17;;;;;;;3.50;1.80;;;8.90;1.00;;;;;;6151054;23;20144;-81
2023/03/18 02:32:46;;;;;;;3.63;1.80;;;8.80;1.00;;;;;;6151794;23;20472;-82
2023/03/18 02:35:12;;;;;;;3.80;2.03;;;8.80;1.00;;;;;;6151745;23;20159;-80
2023/03/18 02:37:38;;;;;;;2.93;2.10;;;8.80;1.00;;;;;;6151996;23;20162;-82
2023/03/18 02:40:33;;;;;;;2.33;1.70;;;8.80;1.00;;;;;;6126111;23;20159;-81
2023/03/18 02:43:26;;;;;;;2.30;1.80;;;8.80;1.00;;;;;;6125927;23;20163;-79
2023/03/18 02:46:05;;;;;;;1.97;1.80;;;8.70;1.00;;;;;;6152078;23;20204;-79
2023/03/18 02:48:43;;;;;;;4.30;1.77;;;8.70;1.00;;;;;;6152225;23;20143;-79
2023/03/18 02:51:11;;;;;;;2.37;1.70;;;8.60;1.00;;;;;;6152499;23;20160;-80
2023/03/18 02:53:37;;;;;;;3.17;1.87;;;8.60;1.00;;;;;;6151469;23;20230;-79
2023/03/18 02:56:04;;;;;;;3.07;2.03;;;8.50;1.00;;;;;;6149260;23;20182;-81
2023/03/18 02:58:31;;;;;;;2.10;1.70;;;8.40;1.00;;;;;;6149803;23;20216;-81
2023/03/18 03:00:57;;;;;;;2.90;1.63;;;8.40;1.00;;;;;;6149555;23;20535;-81
2023/03/18 03:03:23;;;;;;;4.07;1.90;;;8.40;1.00;;;;;;6149955;23;20175;-80
2023/03/18 03:05:49;;;;;;;3.17;2.03;;;8.30;1.00;;;;;;6123956;23;20222;-80
2023/03/18 03:08:15;;;;;;;3.53;2.37;;;8.30;1.00;;;;;;6151583;23;20242;-79
2023/03/18 03:10:41;;;;;;;3.40;2.50;;;8.40;1.00;;;;;;6151463;23;20161;-79
2023/03/18 03:13:08;;;;;;;6.20;2.60;;;8.50;1.00;;;;;;6151266;23;20172;-80
2023/03/18 03:15:35;;;;;;;3.53;2.20;;;8.50;1.00;;;;;;6151403;23;20201;-80
2023/03/18 03:18:02;;;;;;;4.10;2.30;;;8.50;1.00;;;;;;6151990;23;20594;-79
2023/03/18 03:20:31;;;;;;;4.20;2.20;;;8.60;1.00;;;;;;6124982;23;20179;-81
2023/03/18 03:22:56;;;;;;;3.77;2.37;;;8.70;1.00;;;;;;6125104;23;20163;-82
2023/03/18 03:25:22;;;;;;;4.17;2.40;;;8.80;1.00;;;;;;6151884;23;20484;-80
2023/03/18 03:27:48;;;;;;;3.13;2.20;;;8.80;1.00;;;;;;6151611;23;20290;-80
2023/03/18 03:30:15;;;;;;;4.80;2.57;;;8.90;1.00;;;;;;6125204;23;20188;-80
2023/03/18 03:32:41;;;;;;;3.27;1.93;;;9.00;1.00;;;;;;6124549;23;20160;-80
2023/03/18 03:35:08;;;;;;;5.47;2.53;;;9.00;1.00;;;;;;6151154;23;20176;-81
2023/03/18 03:37:34;;;;;;;3.27;2.50;;;9.10;1.00;;;;;;6125480;23;20663;-80
2023/03/18 03:39:59;;;;;;;5.83;2.30;;;9.20;1.00;;;;;;6151324;23;20155;-79
2023/03/18 03:42:25;;;;;;;3.10;2.00;;;9.30;1.00;;;;;;6151149;23;20220;-81
2023/03/18 03:44:51;;;;;;;4.43;2.10;;;9.30;1.00;;;;;;6151082;23;20615;-79
2023/03/18 03:47:16;;;;;;;4.20;2.73;;;9.30;1.00;;;;;;6151043;23;20271;-80
2023/03/18 03:49:42;;;;;;;3.73;2.27;;;9.30;1.00;;;;;;6124254;23;20531;-81
2023/03/18 03:52:08;;;;;;;3.80;2.23;;;9.30;1.00;;;;;;6124423;23;20209;-80
2023/03/18 03:54:33;;;;;;;6.80;2.80;;;9.20;1.00;;;;;;6123763;23;20229;-80
2023/03/18 03:57:00;;;;;;;3.77;2.20;;;9.30;1.00;;;;;;6123340;23;20246;-79
2023/03/18 03:59:26;;;;;;;2.83;1.90;;;9.30;1.00;;;;;;6122260;23;20167;-81
2023/03/18 04:01:51;;;;;;;2.77;2.20;;;9.30;1.00;;;;;;6122352;23;20293;-81
2023/03/18 04:04:17;;;;;;;3.63;2.50;;;9.30;1.00;;;;;;6148146;23;20649;-79
2023/03/18 04:06:42;;;;;;;3.33;2.00;;;9.30;1.00;;;;;;6148117;23;20627;-80
2023/03/18 04:09:08;;;;;;;2.70;2.10;;;9.40;1.00;;;;;;6122310;23;20183;-80
2023/03/18 04:11:34;;;;;;;4.53;2.63;;;9.50;1.00;;;;;;6121740;23;20243;-80
2023/03/18 04:14:00;;;;;;;4.03;2.40;;;9.60;1.00;;;;;;6121543;23;20191;-79
2023/03/18 04:16:25;;;;;;;3.20;2.47;;;9.70;1.00;;;;;;6121497;23;20564;-78
2023/03/18 04:18:51;;;;;;;4.80;3.00;;;9.80;1.00;;;;;;6122076;23;20204;-81
2023/03/18 04:21:16;;;;;;;6.97;3.23;;;9.80;1.00;;;;;;6148015;23;20490;-80
2023/03/18 04:23:42;;;;;;;4.43;3.03;;;9.80;1.00;;;;;;6121542;23;20209;-80
2023/03/18 04:26:08;;;;;;;6.33;2.97;;;9.70;1.00;;;;;;6147535;23;20175;-80
2023/03/18 04:28:34;;;;;;;6.40;3.20;;;9.80;1.00;;;;;;6148070;23;20162;-79
2023/03/18 04:30:59;;;;;;;4.77;3.00;;;9.90;1.00;;;;;;6121888;23;20250;-80
2023/03/18 04:33:25;;;;;;;5.37;2.97;;;9.80;1.00;;;;;;6147423;23;20918;-80
2023/03/18 04:35:51;;;;;;;3.83;3.43;;;9.80;1.00;;;;;;6147874;23;20171;-80
2023/03/18 04:38:17;;;;;;;5.53;3.10;;;9.70;1.00;;;;;;6121842;23;20159;-80
2023/03/18 04:40:42;;;;;;;5.33;3.27;;;9.70;1.00;;;;;;6147968;23;20479;-80
2023/03/18 04:43:08;;;;;;;5.50;3.10;;;9.60;1.00;;;;;;6121575;23;20187;-80
2023/03/18 04:45:34;;;;;;;5.30;3.30;;;9.60;1.00;;;;;;6121398;23;20865;-78
2023/03/18 04:48:00;;;;;;;5.27;3.00;;;9.70;1.00;;;;;;6147723;23;20242;-79
2023/03/18 04:50:27;;;;;;;5.17;3.60;;;9.70;1.00;;;;;;6121618;23;20164;-79
2023/03/18 04:52:53;;;;;;;4.03;3.50;;;9.60;1.00;;;;;;6121390;23;20160;-79
2023/03/18 04:55:20;;;;;;;6.83;3.90;;;9.60;1.00;;;;;;6121590;23;20186;-81
2023/03/18 04:57:47;;;;;;;5.70;3.70;;;9.50;1.00;;;;;;6121720;23;20171;-79
2023/03/18 05:00:16;;;;;;;4.57;3.40;;;9.50;1.00;;;;;;6148378;23;20155;-82
2023/03/18 05:02:42;;;;;;;7.47;4.27;;;9.50;1.00;;;;;;6148399;23;20226;-79
2023/03/18 05:05:08;;;;;;;7.40;3.67;;;9.50;1.00;;;;;;6147484;23;20175;-80
2023/03/18 05:07:34;;;;;;;4.77;3.17;;;9.50;1.00;;;;;;6121855;23;20623;-80
2023/03/18 05:09:59;;;;;;;3.97;3.13;;;9.50;1.00;;;;;;6148165;23;20210;-80
2023/03/18 05:12:25;;;;;;;5.90;3.90;;;9.50;1.00;;;;;;6148270;23;21064;-80
2023/03/18 05:14:51;;;;;;;4.57;3.63;;;9.50;1.00;;;;;;6121343;23;20179;-81
2023/03/18 05:17:18;;;;;;;5.87;3.40;;;9.40;1.00;;;;;;6121670;23;20238;-80
2023/03/18 05:19:45;;;;;;;6.50;3.70;;;9.40;1.10;;;;;;6147729;23;20160;-80
2023/03/18 05:22:12;;;;;;;6.07;3.73;;;9.40;8.40;;;;;;6147657;23;20179;-80
2023/03/18 05:24:39;;;;;;;4.60;3.70;;;9.30;11.10;;;;;;6121143;23;20658;-81
2023/03/18 05:27:06;;;;;;;4.63;3.60;;;9.20;18.50;;;;;;6147607;23;20218;-80
2023/03/18 05:29:32;;;;;;;7.87;3.60;;;9.20;31.50;;;;;;6121466;23;20168;-80
2023/03/18 05:31:57;;;;;;;5.87;4.03;;;9.20;28.90;;;;;;6147562;23;20679;-81
2023/03/18 05:34:23;;;;;;;4.53;3.30;;;9.20;20.10;;;;;;6121204;23;20175;-80
2023/03/18 05:36:49;;;;;;;5.50;3.90;;;9.40;1.00;;;;;;6121337;23;20659;-81
2023/03/18 05:39:15;;;;;;;4.50;3.47;;;9.50;1.00;;;;;;6147379;23;20156;-80
2023/03/18 05:41:40;;;;;;;4.10;3.70;;;9.50;1.00;;;;;;6120908;23;20163;-81
2023/03/18 05:44:06;;;;;;;7.50;4.10;;;9.40;1.00;;;;;;6147322;23;20176;-80
2023/03/18 05:46:32;;;;;;;6.00;4.17;;;9.40;1.00;;;;;;6147771;23;20179;-80
2023/03/18 05:48:58;;;;;;;5.73;3.93;;;9.50;1.00;;;;;;6147931;23;20158;-81
2023/03/18 05:51:23;;;;;;;4.73;3.90;;;9.50;1.00;;;;;;6121326;23;20597;-80
2023/03/18 05:53:49;;;;;;;8.93;3.90;;;9.40;1.00;;;;;;6147246;23;20182;-81
2023/03/18 05:56:15;;;;;;;6.77;3.83;;;9.40;1.00;;;;;;6121118;23;20187;-81
2023/03/18 05:58:41;;;;;;;5.23;3.83;;;9.30;1.00;;;;;;6121370;23;20167;-79
2023/03/18 06:01:06;;;;;;;5.90;3.80;;;9.20;1.00;;;;;;6147418;23;20214;-81
2023/03/18 06:03:33;;;;;;;4.30;3.50;;;9.10;4.30;;;;;;6147021;23;20234;-81
2023/03/18 06:06:00;;;;;;;4.37;3.80;;;9.00;17.70;;;;;;6120847;23;20639;-81
2023/03/18 06:08:26;;;;;;;5.50;4.00;;;9.00;23.10;;;;;;6120926;23;20553;-81
2023/03/18 06:10:52;;;;;;;7.13;4.70;;;9.00;48.20;;;;;;6147349;23;20190;-80
2023/03/18 06:13:19;;;;;;;5.73;3.97;;;8.90;40.20;;;;;;6149417;23;20202;-84
2023/03/18 06:15:45;;;;;;;6.20;4.47;;;8.90;46.60;;;;;;6153017;23;20178;-84
2023/03/18 06:18:11;;;;;;;4.97;4.03;;;8.80;67.20;;;;;;6127389;23;20156;-83
2023/03/18 06:20:37;;;;;;;6.47;4.40;;;8.80;75.90;;;;;;6153041;23;20179;-83
2023/03/18 06:23:02;;;;;;;4.27;3.87;;;8.70;66.80;;;;;;6126206;23;20148;-83
2023/03/18 06:25:28;;;;;;;5.63;4.17;;;8.60;65.10;;;;;;6153219;23;20179;-83
2023/03/18 06:27:53;;;;;;;7.17;4.40;;;8.60;93.50;;;;;;6153213;23;20171;-84
2023/03/18 06:30:19;;;;;;;7.17;4.37;;;8.60;99.90;;;;;;6157260;23;20164;-83
2023/03/18 06:32:45;;;;;;;4.40;3.97;;;8.60;99.90;;;;;;6157879;23;20162;-83
2023/03/18 06:35:12;;;;;;;6.17;4.37;;;8.60;99.70;;;;;;6125694;23;20677;-80
2023/03/18 06:37:38;;;;;;;5.57;4.37;;;8.60;99.90;;;;;;6122494;23;20168;-80
2023/03/18 06:40:05;;;;;;;4.77;3.87;;;8.60;94.10;;;;;;6121238;23;20251;-80
2023/03/18 06:42:32;;;;;;;5.10;4.20;;;8.70;91.50;;;;;;6121153;23;20809;-81
2023/03/18 06:44:57;;;;;;;4.77;4.03;;;8.70;99.90;;;;;;6121072;23;20961;-80
2023/03/18 06:47:23;;;;;;;7.07;4.70;;;8.80;90.40;;;;;;6147839;23;20233;-80
2023/03/18 06:49:49;;;;;;;5.50;3.90;;;9.60;73.40;;;;;;6121132;23;20160;-81
2023/03/18 06:52:16;;;;;;;6.90;4.20;;;8.90;81.30;;;;;;6147847;23;20132;-81
2023/03/18 06:54:43;;;;;;;8.43;4.30;;;9.00;74.70;;;;;;6149057;23;20176;-81
2023/03/18 06:57:09;;;;;;;6.83;3.73;;;9.00;66.90;;;;;;6149108;23;20985;-81
2023/03/18 06:59:35;;;;;;;5.70;3.93;;;9.00;61.40;;;;;;6149315;23;20152;-80
2023/03/18 07:02:01;;;;;;;6.30;4.33;;;9.10;70.60;;;;;;6122856;23;20167;-80
2023/03/18 07:04:26;;;;;;;5.60;4.00;;;9.10;65.80;;;;;;6148938;23;20567;-81
2023/03/18 07:06:52;;;;;;;4.80;3.83;;;9.20;80.50;;;;;;6122548;23;20176;-81
2023/03/18 07:09:18;;;;;;;6.87;4.07;;;9.30;62.90;;;;;;6150043;23;20159;-82
2023/03/18 07:11:45;;;;;;;5.80;4.23;;;9.50;36.70;;;;;;6150300;23;20231;-81
2023/03/18 07:14:13;;;;;;;6.33;4.50;;;9.60;31.70;;;;;;6149528;23;20171;-82
2023/03/18 07:16:39;;;;;;;7.37;4.40;;;9.80;33.20;;;;;;6149750;23;20187;-80
2023/03/18 07:19:06;;;;;;;4.17;3.77;;;9.90;27.10;;;;;;6149761;23;20608;-81
2023/03/18 07:21:31;;;;;;;7.03;4.40;;;10.00;22.00;;;;;;6150100;23;20765;-81
2023/03/18 07:23:57;;;;;;;5.13;4.00;;;10.10;21.90;;;;;;6121444;23;20187;-79
2023/03/18 07:26:23;;;;;;;4.95;3.63;;;10.10;18.20;;;;;;6121973;23;20190;-81
2023/03/18 07:28:49;;;;;;;5.57;3.90;;;10.10;26.20;;;;;;6122391;23;20162;-81
2023/03/18 07:31:15;;;;;;;5.50;3.72;;;10.20;28.60;;;;;;6122050;23;20155;-81
2023/03/18 07:33:41;;;;;;;4.75;3.80;;;10.40;20.00;;;;;;6122007;23;20191;-82
2023/03/18 07:36:07;;;;;;;7.20;4.13;;;10.50;11.70;;;;;;6122764;23;20511;-81
2023/03/18 07:38:33;;;;;;;5.70;3.85;;;10.60;5.20;;;;;;6148578;23;20183;-81
2023/03/18 07:40:59;;;;;;;4.88;3.55;;;10.70;3.30;;;;;;6148403;23;20162;-82
2023/03/18 07:43:25;;;;;;;5.07;3.70;;;10.90;4.70;;;;;;6121975;23;20278;-81
2023/03/18 07:45:51;;;;;;;4.30;3.55;;;11.00;1.00;;;;;;6148084;23;20144;-81
2023/03/18 07:48:16;;;;;;;3.95;3.50;;;11.20;1.00;;;;;;6122158;23;20164;-80
2023/03/18 07:50:42;;;;;;;5.63;3.58;;;11.20;1.00;;;;;;6121999;23;20230;-82
2023/03/18 07:53:08;;;;;;;4.38;3.50;;;11.40;1.00;;;;;;6121942;23;20178;-81
2023/03/18 07:55:34;;;;;;;3.40;3.10;;;11.50;1.00;;;;;;6148197;23;20140;-81
2023/03/18 07:57:59;;;;;;;5.28;3.08;;;11.70;1.00;;;;;;6147497;23;20168;-81
2023/03/18 08:00:26;;;;;;;5.65;3.22;;;11.90;1.00;;;;;;6121549;23;20167;-80
2023/03/18 08:02:51;;;;;;;4.25;3.20;;;12.20;1.00;;;;;;6120298;23;20270;-81
2023/03/18 08:05:18;;;;;;;3.47;3.10;;;12.30;1.00;;;;;;6120632;23;20179;-81
2023/03/18 08:07:44;;;;;;;3.63;3.20;;;12.40;1.00;;;;;;6118033;23;20175;-81
2023/03/18 08:10:10;;;;;;;5.80;2.80;;;12.70;1.00;;;;;;6145227;23;20625;-80
2023/03/18 08:12:36;;;;;;;4.75;3.17;;;12.60;1.00;;;;;;6118200;23;20752;-82
2023/03/18 08:15:03;;;;;;;4.57;3.20;;;12.50;1.00;;;;;;6143119;23;20290;-80
2023/03/18 08:17:29;;;;;;;4.45;2.72;;;12.50;1.00;;;;;;6121628;23;20567;-80
2023/03/18 08:19:55;;;;;;;4.90;2.50;;;12.50;1.00;;;;;;6121977;23;20210;-81
2023/03/18 08:22:22;;;;;;;3.72;2.10;;;12.40;1.00;;;;;;6148120;23;20511;-80
2023/03/18 08:24:49;;;;;;;4.45;2.25;;;12.30;1.00;;;;;;6118021;23;20194;-81
2023/03/18 08:27:14;;;;;;;3.20;2.30;;;12.20;1.00;;;;;;6132882;23;20297;-84
2023/03/18 08:29:40;;;;;;;3.17;1.80;;;12.20;1.00;;;;;;6154013;23;20152;-82
2023/03/18 08:32:06;;;;;;;5.03;2.33;;;12.30;1.00;;;;;;6127705;23;20494;-80
2023/03/18 08:34:32;;;;;;;4.00;2.05;;;12.40;1.00;;;;;;6130430;23;20190;-80
2023/03/18 08:36:58;;;;;;;2.83;2.30;;;12.40;1.00;;;;;;6131006;23;20163;-80
2023/03/18 08:39:24;;;;;;;4.78;1.90;;;12.40;1.00;;;;;;6129760;23;20206;-80
2023/03/18 08:41:49;;;;;;;3.88;1.77;;;12.50;1.00;;;;;;6126762;23;20159;-81
2023/03/18 08:44:15;;;;;;;2.92;1.98;;;12.60;1.00;;;;;;6132120;23;20533;-79
2023/03/18 08:46:41;;;;;;;3.30;1.70;;;12.80;1.00;;;;;;6147946;23;20186;-81
2023/03/18 08:49:09;;;;;;;3.63;1.80;;;12.90;1.00;;;;;;6152211;23;20144;-77
2023/03/18 08:51:35;;;;;;;2.92;1.63;;;13.20;1.00;;;;;;6122378;23;20230;-85
2023/03/18 08:54:00;;;;;;;1.90;1.75;;;13.70;1.00;;;;;;6123617;23;20551;-83
2023/03/18 08:56:26;;;;;;;2.47;1.67;;;13.10;1.00;;;;;;6123351;23;20529;-83
2023/03/18 08:58:52;;;;;;;2.90;2.00;;;13.10;1.00;;;;;;6148743;23;20616;-81
2023/03/18 09:01:21;;;;;;;4.15;1.85;;;13.10;1.00;;;;;;6122444;23;20620;-81
2023/03/18 09:03:48;;;;;;;4.40;1.83;;;13.20;1.00;;;;;;6147828;23;20186;-80
2023/03/18 09:06:14;;;;;;;2.75;2.00;;;13.40;1.00;;;;;;6148537;23;20186;-80
2023/03/18 09:08:40;;;;;;;3.83;2.25;;;13.30;1.00;;;;;;6123030;23;20159;-79
2023/03/18 09:11:08;;;;;;;2.35;1.98;;;13.40;1.00;;;;;;6147797;23;20581;-80
2023/03/18 09:13:34;;;;;;;4.18;2.58;;;13.40;1.00;;;;;;6146167;23;20352;-80
2023/03/18 09:16:00;;;;;;;4.28;2.10;;;13.40;1.00;;;;;;6147207;23;20184;-81
2023/03/18 09:18:26;;;;;;;2.85;2.17;;;13.50;1.00;;;;;;6147071;23;20175;-79
2023/03/18 09:20:52;;;;;;;3.58;2.22;;;13.50;1.00;;;;;;6147411;23;20167;-79
2023/03/18 09:23:18;;;;;;;3.47;2.10;;;13.40;1.00;;;;;;6147480;23;20199;-79
2023/03/18 09:25:45;;;;;;;3.40;2.35;;;13.40;1.00;;;;;;6122305;23;20403;-79
2023/03/18 09:28:11;;;;;;;3.50;2.42;;;13.40;1.00;;;;;;6147657;23;20171;-78
2023/03/18 09:30:37;;;;;;;2.63;2.20;;;13.30;1.00;;;;;;6146176;23;20148;-77
2023/03/18 09:33:05;;;;;;;3.90;2.72;;;13.40;1.00;;;;;;6119627;23;20210;-79
2023/03/18 09:35:31;;;;;;;6.18;2.92;;;13.40;1.00;;;;;;6146627;23;20230;-80
2023/03/18 09:37:57;;;;;;;4.65;2.58;;;13.40;1.00;;;;;;6146175;23;20156;-79
2023/03/18 09:40:29;;;;;;;4.75;3.00;;;13.50;1.00;;;;;;6146799;23;20156;-80
2023/03/18 09:43:13;;;;;;;2.88;2.45;;;13.60;1.00;;;;;;6145820;23;20631;-78
2023/03/18 09:46:02;;;;;;;4.53;2.53;;;13.60;1.00;;;;;;6146002;23;20727;-78
2023/03/18 09:48:55;;;;;;;4.50;2.92;;;13.70;1.00;;;;;;6121685;23;20619;-77
2023/03/18 09:51:28;;;;;;;3.88;2.72;;;13.70;1.00;;;;;;6148109;23;20136;-80
2023/03/18 09:54:41;;;;;;;4.35;3.13;;;13.40;1.00;;;;;;6147582;23;20552;-78
2023/03/18 09:57:26;;;;;;;3.78;3.08;;;14.00;1.00;;;;;;6114675;23;20164;-80
2023/03/18 10:00:01;;;;;;;4.40;3.97;;;14.30;1.00;;;;;;6148305;23;20210;-80
2023/03/18 10:02:35;;;;;;;6.88;5.25;;;14.40;1.00;;;;;;6147208;23;20491;-77
2023/03/18 10:05:06;;;;;;;6.40;5.50;;;14.70;1.00;;;;;;6145857;23;20536;-80
2023/03/18 10:07:37;;;;;;;6.65;5.85;;;14.80;1.00;;;;;;6147751;23;20254;-78
2023/03/18 10:10:08;;;;;;;7.35;6.18;;;14.80;1.00;;;;;;6149962;23;20140;-77
2023/03/18 10:12:35;;;;;;;7.05;5.65;;;14.70;1.00;;;;;;6148756;23;20136;-79
2023/03/18 10:15:28;;;;;;;7.32;6.70;;;14.80;1.00;;;;;;6147661;23;20716;-77
2023/03/18 10:18:24;;;;;;;7.78;7.00;;;14.70;1.00;;;;;;6147492;23;20140;-76
2023/03/18 10:21:51;;;;;;;9.43;8.43;;;14.60;1.00;;;;;;6148188;23;20627;-75
2023/03/18 10:24:36;;;;;;;11.18;7.28;;;14.70;1.00;;;;;;6006624;23;20198;-77
2023/03/18 10:27:26;;;;;;;8.35;7.47;;;14.80;1.00;;;;;;6149094;23;20163;-78
2023/03/18 10:30:00;;;;;;;8.05;7.18;;;14.90;1.00;;;;;;6078245;23;20167;-79
2023/03/18 10:32:39;;;;;;;7.47;6.78;;;15.00;1.00;;;;;;6149700;23;20144;-78
2023/03/18 10:35:29;;;;;;;8.00;6.55;;;15.10;1.00;;;;;;6148509;23;20178;-79
2023/03/18 10:38:03;;;;;;;6.82;6.05;;;15.20;1.00;;;;;;6121916;23;20319;-76
2023/03/18 10:40:34;;;;;;;7.63;5.68;;;15.20;1.00;;;;;;6148993;23;20582;-77
2023/03/18 10:43:03;;;;;;;6.03;4.80;;;15.00;1.00;;;;;;6122647;23;20222;-78
2023/03/18 10:45:30;;;;;;;5.20;4.65;;;15.20;1.00;;;;;;6148738;23;20155;-76
2023/03/18 10:48:04;;;;;;;4.55;3.90;;;15.50;1.00;;;;;;6121799;23;20187;-78
2023/03/18 10:50:38;;;;;;;4.10;3.67;;;15.80;1.00;;;;;;6123030;23;20230;-79
2023/03/18 10:53:27;;;;;;;5.57;3.78;;;15.80;1.00;;;;;;6148035;23;20525;-77
2023/03/18 10:56:06;;;;;;;4.13;3.65;;;16.00;1.00;;;;;;6147747;23;20179;-77
2023/03/18 10:58:32;;;;;;;4.88;3.50;;;15.90;1.00;;;;;;6148693;23;20214;-78
2023/03/18 11:00:58;;;;;;;3.78;3.20;;;15.70;1.00;;;;;;6149518;23;20604;-79
2023/03/18 11:03:28;;;;;;;4.68;2.90;;;15.70;1.00;;;;;;6148430;23;20218;-80
2023/03/18 11:05:56;;;;;;;3.25;2.90;;;15.70;1.00;;;;;;6147949;23;20206;-78
2023/03/18 11:08:33;;;;;;;3.50;3.20;;;15.70;1.00;;;;;;6123487;23;20741;-78
2023/03/18 11:11:14;;;;;;;3.10;2.83;;;15.60;1.00;;;;;;6149940;23;20143;-79
2023/03/18 11:13:51;;;;;;;3.92;3.05;;;15.30;1.00;;;;;;6150008;23;20205;-80
2023/03/18 11:16:41;;;;;;;5.30;3.47;;;15.30;1.00;;;;;;6149506;23;20247;-81
2023/03/18 11:19:17;;;;;;;4.40;2.83;;;15.40;1.00;;;;;;6149597;23;20696;-77
2023/03/18 11:21:43;;;;;;;3.20;2.90;;;15.30;1.00;;;;;;6149558;23;20179;-80
2023/03/18 12:42:12;;;;;;;1.95;1.75;;;16.20;1.00;;;;;;6229821;22;20250;-77
2023/03/18 12:45:01;;;;;;;3.92;1.70;;;16.00;1.00;;;;;;6206670;23;20503;-77
2023/03/18 12:48:01;;;;;;;2.42;1.50;;;16.00;1.00;;;;;;6207056;23;20235;-77
2023/03/18 12:50:57;;;;;;;1.92;1.35;;;16.30;1.00;;;;;;6207756;23;20158;-76
2023/03/18 12:53:35;;;;;;;1.60;1.30;;;16.50;1.00;;;;;;6226108;23;20173;-76
2023/03/18 12:56:24;;;;;;;2.17;1.40;;;16.70;1.00;;;;;;6234170;23;20228;-76
2023/03/18 12:59:17;;;;;;;1.30;1.10;;;16.80;1.00;;;;;;6207600;23;20231;-76
2023/03/18 13:02:14;;;;;;;1.67;1.13;;;16.70;1.00;;;;;;6207226;23;20157;-77
2023/03/18 14:22:48;;;;;;;1.00;0.85;;;16.40;1.00;;;;;;6236886;23;20399;-83
2023/03/18 15:00:15;;;;;;;1.88;0.95;;;16.60;1.00;;;;;;5944838;24;20183;-82
2023/03/18 16:09:14;;;;;;;1.52;1.42;;;15.40;1.00;;;;;;6000205;23;20337;-82
2023/03/18 16:16:01;;;;;;;3.85;2.60;;;15.20;1.00;;;;;;5975145;24;20182;-84
2023/03/18 16:22:46;;;;;;;5.60;2.85;;;15.10;1.00;;;;;;5891026;24;20284;-80
2023/03/18 17:08:05;;;;;;;5.38;2.70;;;14.00;1.00;;;;;;5946907;24;20419;-81
2023/03/18 17:11:35;;;;;;;164.63;145.27;;;13.90;1.00;;;;;;5959972;24;20258;-80
2023/03/18 17:25:18;;;;;;;13.55;12.05;;;13.30;1.00;;;;;;5864218;24;20208;-81
2023/03/18 17:32:45;;;;;;;5.20;3.90;;;12.80;1.00;;;;;;5841696;24;20203;-80
2023/03/18 17:36:20;;;;;;;4.95;4.40;;;12.50;1.00;;;;;;5756249;24;20175;-81
2023/03/18 17:40:08;;;;;;;7.60;5.70;;;12.30;1.00;;;;;;5807667;24;20202;-81
2023/03/18 17:47:15;;;;;;;5.70;5.00;;;11.90;1.00;;;;;;5800122;24;20702;-81
2023/03/18 17:50:51;;;;;;;4.13;3.72;;;11.80;1.00;;;;;;5847560;24;20234;-81
2023/03/18 18:07:55;;;;;;;5.32;4.80;;;10.70;13.20;;;;;;5742920;24;20239;-81
2023/03/18 18:21:50;;;;;;;4.53;3.50;;;10.30;87.90;;;;;;5971818;24;20327;-81
2023/03/18 18:25:36;;;;;;;5.13;3.87;;;10.30;67.40;;;;;;6056375;23;20284;-80
2023/03/18 18:29:15;;;;;;;3.37;3.07;;;10.20;50.20;;;;;;5886705;24;20196;-80
2023/03/18 18:42:45;;;;;;;4.17;3.53;;;9.60;99.90;;;;;;5843201;24;20350;-81
2023/03/18 18:45:40;;;;;;;3.73;3.33;;;9.50;99.90;;;;;;5809594;24;20201;-81
2023/03/18 18:53:08;;;;;;;3.87;3.10;;;9.20;99.90;;;;;;5877377;24;20200;-80
2023/03/18 19:06:44;;;;;;;5.23;4.73;;;9.00;99.90;;;;;;5858241;24;20796;-80
2023/03/18 19:10:08;;;;;;;5.07;4.67;;;8.90;99.90;;;;;;5937182;24;20508;-80
2023/03/18 19:13:41;;;;;;;5.37;4.90;;;8.70;99.90;;;;;;5967808;24;20188;-80
2023/03/18 19:17:27;;;;;;;5.23;4.73;;;8.70;99.90;;;;;;5882870;24;20257;-80
2023/03/18 19:54:57;;;;;;;7.60;6.90;;;9.00;99.90;;;;;;6005418;23;20201;-80
2023/03/18 20:02:25;;;;;;;5.57;4.40;;;8.90;99.90;;;;;;6028296;23;20209;-80
2023/03/18 20:09:16;;;;;;;7.23;6.53;;;8.90;99.90;;;;;;5997086;23;20260;-80
2023/03/18 20:16:18;;;;;;;4.00;3.70;;;9.00;99.90;;;;;;5997423;23;20227;-79
2023/03/18 20:19:43;;;;;;;7.47;6.13;;;9.00;99.90;;;;;;5970668;23;20557;-80
2023/03/18 20:23:16;;;;;;;124.07;113.00;;;9.00;99.90;;;;;;5941948;24;20536;-81
2023/03/18 20:30:07;;;;;;;70.80;64.70;;;9.00;99.90;;;;;;5925083;24;20239;-80
2023/03/18 20:40:21;;;;;;;7.33;6.63;;;9.10;99.90;;;;;;5889384;24;20219;-82
2023/03/18 20:43:32;;;;;;;7.10;6.50;;;9.10;99.90;;;;;;5790996;24;20166;-80
2023/03/18 20:47:27;;;;;;;5.40;4.90;;;9.10;99.90;;;;;;5840513;24;20169;-81
2023/03/18 20:54:53;;;;;;;19.90;18.40;;;9.10;99.90;;;;;;5799797;24;20256;-80